メインページ
METAR-TAF:

METAR-TAF

空港 :

Revelstoke, ブリティッシュコロンビア州, カナダ

緯度: 50-58N, 経度: 118-11W, 海抜: 443m

現時点の気象観測

当レポートは14分前の18:08(UTC)に作成
北/北西の風 9kt
気温 2°C
湿度 93%
気圧 1017 hPa
視程: 14.5km
高度800ftの曇り
小雨

METAR: CYRV 171808Z AUTO 34009KT 9SM -RA OVC008 02/01 A3002 RMK SLP183

時間: 10:22 (18:22 UTC)


TAF: 見つかりません

4,000以上の空港の気象観測と天気予報(METAR報とTAF報)

利用可能な観測所は地図上に黄色い丸と赤い丸で示す。

丸の上にカーソルを重ねると観測所名を参照できる。

次にクリックすると気象観測と天気予報を参照できる。

マップの切り替え:黒色「×」印の緑ボタンをクリックして拡大、「-」印の緑ボタンをクリックして縮小、緑色の三角印をクリックして隣りの地図に切り替え


METAR-TAF: